Time;durP1;ratioP1;P1;durP2;ratioP2;P2;SDS_P1;SDS_P2;PMS_P1;PMS_P2;Temp;Humidity;BMP_temperature;BMP_pressure;BME280_temperature;BME280_humidity;BME280_pressure;Samples;Min_cycle;Max_cycle;Signal;HPM_P1;HPM_P2
2022/08/28 00:00:27;;;;;;;14.13;5.97;;;13.80;99.90;;;;;;6162933;23;20546;-93
2022/08/28 00:03:20;;;;;;;12.23;5.45;;;13.80;99.90;;;;;;6163623;22;20012;-93
2022/08/28 00:05:46;;;;;;;9.82;5.05;;;13.70;99.90;;;;;;6164016;23;20020;-92
2022/08/28 00:08:13;;;;;;;11.27;5.53;;;13.70;99.90;;;;;;6187907;23;20081;-94
2022/08/28 00:10:40;;;;;;;12.30;5.18;;;13.60;99.90;;;;;;6163063;23;20093;-93
2022/08/28 00:13:08;;;;;;;10.80;5.25;;;14.50;99.90;;;;;;6188397;23;20013;-94
2022/08/28 00:15:36;;;;;;;16.35;7.22;;;13.60;99.90;;;;;;6188233;23;20457;-94
2022/08/28 00:18:27;;;;;;;10.93;5.72;;;14.20;99.90;;;;;;6162724;23;20437;-93
2022/08/28 00:20:54;;;;;;;11.43;5.47;;;13.50;99.90;;;;;;6162770;22;20073;-93
2022/08/28 00:23:20;;;;;;;10.90;4.65;;;14.30;99.90;;;;;;6189077;23;20020;-93
2022/08/28 00:25:46;;;;;;;10.93;4.95;;;13.90;99.90;;;;;;6163171;23;20021;-94
2022/08/28 00:28:13;;;;;;;11.95;4.50;;;13.40;99.90;;;;;;6188443;23;20012;-93
2022/08/28 00:30:48;;;;;;;9.07;4.10;;;13.10;99.90;;;;;;6163635;23;20049;-94
2022/08/28 00:33:42;;;;;;;9.38;3.85;;;14.50;99.90;;;;;;6163962;23;20021;-94
2022/08/28 00:36:16;;;;;;;7.97;3.58;;;13.40;99.90;;;;;;6188070;23;20058;-95
2022/08/28 00:38:42;;;;;;;9.60;3.90;;;13.40;99.90;;;;;;6188033;23;20517;-94
2022/08/28 00:41:09;;;;;;;11.45;5.20;;;13.40;99.90;;;;;;6188154;23;20016;-93
2022/08/28 00:43:41;;;;;;;10.00;5.30;;;13.70;99.90;;;;;;6158899;23;20040;-93
2022/08/28 00:46:21;;;;;;;10.80;4.22;;;14.00;99.90;;;;;;6185965;23;20017;-94
2022/08/28 00:48:54;;;;;;;12.20;4.30;;;13.40;99.90;;;;;;6133857;23;20024;-93
2022/08/28 00:54:06;;;;;;;;;;;14.50;99.90;;;;;;6186277;22;20021;-94
2022/08/28 00:56:32;;;;;;;9.60;3.22;;;13.60;99.90;;;;;;6160065;23;19916;-94
2022/08/28 00:59:04;;;;;;;8.10;3.83;;;13.40;99.90;;;;;;6133889;23;20043;-93
2022/08/28 01:01:30;;;;;;;14.00;4.68;;;14.40;99.90;;;;;;6134838;23;20013;-94
2022/08/28 01:04:33;;;;;;;9.75;3.97;;;14.30;99.90;;;;;;6134666;23;20093;-93
2022/08/28 01:07:01;;;;;;;9.77;3.95;;;13.30;99.90;;;;;;6136401;23;20021;-93
2022/08/28 01:09:30;;;;;;;10.02;3.28;;;13.30;99.90;;;;;;6159819;23;20021;-93
2022/08/28 01:12:02;;;;;;;9.18;3.10;;;13.30;99.90;;;;;;6134992;23;20020;-94
2022/08/28 01:14:30;;;;;;;13.32;3.75;;;13.20;99.90;;;;;;6135765;23;20017;-92
2022/08/28 01:16:59;;;;;;;12.93;3.55;;;13.30;99.90;;;;;;6184135;23;20017;-94
2022/08/28 01:20:05;;;;;;;9.25;2.55;;;13.20;99.90;;;;;;6159705;23;20445;-93
2022/08/28 01:22:38;;;;;;;12.10;3.78;;;13.20;99.90;;;;;;6134149;23;20049;-94
2022/08/28 01:25:26;;;;;;;11.82;3.42;;;13.20;99.90;;;;;;6159352;23;20021;-95
2022/08/28 01:27:52;;;;;;;8.65;3.30;;;13.40;99.90;;;;;;6129797;23;20013;-93
2022/08/28 01:30:20;;;;;;;11.68;3.30;;;13.20;99.90;;;;;;6134351;23;20028;-95
2022/08/28 01:32:50;;;;;;;13.65;2.95;;;13.30;99.90;;;;;;6159174;23;20028;-93
2022/08/28 01:35:41;;;;;;;9.85;3.20;;;13.10;99.90;;;;;;6160046;23;20017;-93
2022/08/28 01:38:07;;;;;;;7.97;2.47;;;13.10;99.90;;;;;;6185863;23;20021;-94
2022/08/28 01:40:48;;;;;;;12.95;2.90;;;13.10;99.90;;;;;;6134919;23;20020;-93
2022/08/28 01:43:22;;;;;;;9.95;2.97;;;12.50;99.90;;;;;;6159202;23;20021;-94
2022/08/28 01:45:51;;;;;;;10.13;3.15;;;13.10;99.90;;;;;;6158427;23;20021;-93
2022/08/28 01:48:19;;;;;;;9.70;3.35;;;13.90;99.90;;;;;;6160242;23;20017;-93
2022/08/28 01:51:10;;;;;;;10.98;3.13;;;13.00;99.90;;;;;;6134925;23;20017;-94
2022/08/28 01:53:37;;;;;;;10.50;2.92;;;13.00;99.90;;;;;;6185669;23;20062;-93
2022/08/28 01:56:07;;;;;;;12.32;2.97;;;12.80;99.90;;;;;;6134135;23;20100;-94
2022/08/28 01:58:42;;;;;;;10.75;3.55;;;13.00;99.90;;;;;;6159582;23;20017;-94
2022/08/28 02:01:15;;;;;;;10.73;3.05;;;14.10;99.90;;;;;;6135271;23;20024;-94
2022/08/28 02:04:05;;;;;;;12.85;3.60;;;12.80;99.90;;;;;;6159291;23;20021;-92
2022/08/28 02:06:50;;;;;;;8.25;2.70;;;12.80;99.90;;;;;;6135982;23;20034;-94
2022/08/28 02:10:18;;;;;;;11.35;2.97;;;12.80;99.90;;;;;;6125822;23;20025;-92
2022/08/28 02:15:14;;;;;;;7.65;3.15;;;12.80;99.90;;;;;;6275296;22;20339;-85
2022/08/28 02:17:41;;;;;;;8.65;3.10;;;13.20;99.90;;;;;;6247761;22;20019;-84
2022/08/28 02:20:08;;;;;;;11.25;3.50;;;12.80;99.90;;;;;;6249223;22;20016;-85
2022/08/28 02:22:39;;;;;;;7.63;3.22;;;12.80;99.90;;;;;;6276092;22;20019;-85
2022/08/28 02:25:08;;;;;;;7.32;2.78;;;12.30;99.90;;;;;;6275817;22;20024;-85
2022/08/28 02:27:36;;;;;;;5.97;2.28;;;13.10;99.90;;;;;;6247959;22;20452;-84
2022/08/28 02:30:10;;;;;;;8.23;2.50;;;12.80;99.90;;;;;;6224257;22;20106;-85
2022/08/28 02:32:37;;;;;;;8.77;2.63;;;12.80;99.90;;;;;;6248415;22;20313;-87
2022/08/28 02:35:05;;;;;;;9.35;3.20;;;12.70;99.90;;;;;;6247814;22;20019;-85
2022/08/28 02:37:31;;;;;;;8.00;3.20;;;12.70;99.90;;;;;;6274396;22;20095;-85
2022/08/28 02:39:57;;;;;;;8.35;2.83;;;12.80;99.90;;;;;;6275606;22;20019;-85
2022/08/28 02:42:23;;;;;;;11.40;2.65;;;13.80;99.90;;;;;;6248251;22;20058;-84
2022/08/28 02:44:51;;;;;;;11.93;3.00;;;13.40;99.90;;;;;;6274268;22;20023;-84
2022/08/28 02:47:18;;;;;;;5.88;2.50;;;12.80;99.90;;;;;;6275131;22;20024;-85
2022/08/28 02:49:44;;;;;;;9.90;2.70;;;13.70;99.90;;;;;;6248604;22;20023;-85
2022/08/28 02:52:12;;;;;;;7.57;2.47;;;12.70;99.90;;;;;;6276096;22;20023;-85
2022/08/28 02:54:39;;;;;;;8.10;2.25;;;12.70;99.90;;;;;;6275418;22;20030;-85
2022/08/28 02:57:07;;;;;;;6.88;2.75;;;12.70;99.90;;;;;;6248270;22;20016;-85
2022/08/28 02:59:34;;;;;;;8.07;2.03;;;12.60;99.90;;;;;;6274781;22;20016;-85
2022/08/28 03:02:03;;;;;;;13.07;3.40;;;12.70;99.90;;;;;;6222524;22;20097;-85
2022/08/28 03:04:39;;;;;;;6.88;2.53;;;12.80;99.90;;;;;;6223346;22;20102;-85
2022/08/28 03:07:08;;;;;;;6.22;2.67;;;12.90;99.90;;;;;;6248975;22;20019;-85
2022/08/28 03:09:35;;;;;;;7.18;2.80;;;12.50;99.90;;;;;;6248035;22;20020;-85
2022/08/28 03:12:01;;;;;;;9.48;2.10;;;13.00;99.90;;;;;;6247617;22;20172;-85
2022/08/28 03:14:29;;;;;;;10.13;2.75;;;12.60;99.90;;;;;;6161766;23;20021;-85
2022/08/28 03:16:55;;;;;;;8.23;2.45;;;12.60;99.90;;;;;;6150500;23;20021;-84
2022/08/28 03:19:24;;;;;;;10.07;2.65;;;12.50;99.90;;;;;;6149397;23;20017;-84
2022/08/28 03:21:53;;;;;;;8.00;2.65;;;12.50;99.90;;;;;;6123977;23;20018;-84
2022/08/28 03:24:20;;;;;;;7.07;2.80;;;13.50;99.90;;;;;;6149954;23;20017;-84
2022/08/28 03:26:50;;;;;;;8.65;2.25;;;12.00;99.90;;;;;;6148697;23;20519;-85
2022/08/28 03:29:22;;;;;;;6.22;2.50;;;11.80;99.90;;;;;;6099046;23;20139;-85
2022/08/28 03:31:48;;;;;;;7.50;2.10;;;12.50;99.90;;;;;;6149891;23;20013;-85
2022/08/28 03:34:16;;;;;;;10.75;2.92;;;11.90;99.90;;;;;;6149778;23;20109;-84
2022/08/28 03:36:45;;;;;;;7.38;2.53;;;12.80;99.90;;;;;;6100764;23;20020;-85
2022/08/28 03:39:12;;;;;;;8.15;2.80;;;12.40;99.90;;;;;;6098027;23;20018;-84
2022/08/28 03:41:41;;;;;;;7.57;2.28;;;12.80;99.90;;;;;;6122820;23;20018;-85
2022/08/28 03:44:07;;;;;;;8.82;2.25;;;12.30;99.90;;;;;;6148988;23;20017;-85
2022/08/28 03:46:38;;;;;;;9.88;3.35;;;12.40;99.90;;;;;;6115983;23;20021;-85
2022/08/28 03:49:07;;;;;;;7.97;2.33;;;12.30;99.90;;;;;;6122717;23;20116;-85
2022/08/28 03:51:34;;;;;;;10.77;3.03;;;12.30;99.90;;;;;;6098094;23;20432;-85
2022/08/28 03:54:04;;;;;;;7.55;2.47;;;12.30;99.90;;;;;;6098464;23;20029;-85
2022/08/28 03:56:36;;;;;;;6.60;2.30;;;12.30;99.90;;;;;;6147969;23;20059;-85
2022/08/28 03:59:04;;;;;;;8.35;2.03;;;12.30;99.90;;;;;;6122657;23;20021;-85
2022/08/28 04:01:31;;;;;;;7.82;2.47;;;12.20;99.90;;;;;;6098937;23;20048;-85
2022/08/28 04:04:42;;;;;;;6.60;2.50;;;12.20;99.90;;;;;;6058818;23;20023;-85
2022/08/28 04:07:27;;;;;;;6.88;2.30;;;13.00;99.90;;;;;;6011595;23;20027;-85
2022/08/28 04:09:53;;;;;;;5.93;2.47;;;12.20;99.90;;;;;;6057675;23;20022;-84
2022/08/28 04:12:19;;;;;;;5.35;2.33;;;12.10;99.90;;;;;;6034949;23;20029;-84
2022/08/28 04:14:46;;;;;;;10.60;2.40;;;12.10;99.90;;;;;;6131486;23;20036;-84
2022/08/28 04:17:23;;;;;;;9.23;2.45;;;12.20;99.90;;;;;;6132332;23;20121;-85
2022/08/28 04:19:52;;;;;;;6.45;2.55;;;12.10;99.90;;;;;;6181095;23;20060;-86
2022/08/28 04:22:33;;;;;;;10.00;2.65;;;12.80;99.90;;;;;;6132412;23;20017;-87
2022/08/28 04:25:06;;;;;;;6.20;2.08;;;12.20;99.90;;;;;;6157019;23;20116;-87
2022/08/28 04:27:45;;;;;;;5.57;2.28;;;12.00;99.90;;;;;;6132101;23;20421;-85
2022/08/28 04:30:20;;;;;;;4.72;1.95;;;11.90;99.90;;;;;;6132613;23;20025;-87
2022/08/28 04:32:45;;;;;;;7.65;2.42;;;11.90;99.90;;;;;;6132482;23;20017;-87
2022/08/28 04:35:30;;;;;;;6.57;2.40;;;11.90;99.90;;;;;;6157446;23;20067;-87
2022/08/28 04:37:58;;;;;;;6.63;2.45;;;11.90;99.90;;;;;;6133197;23;20446;-84
2022/08/28 04:40:38;;;;;;;7.18;2.00;;;11.80;99.90;;;;;;6175815;22;20015;-85
2022/08/28 04:43:04;;;;;;;9.57;2.72;;;11.30;99.90;;;;;;6249101;22;20094;-85
2022/08/28 04:45:30;;;;;;;9.23;2.20;;;12.50;99.90;;;;;;6223905;22;20016;-85
2022/08/28 04:48:02;;;;;;;9.98;2.47;;;12.00;99.90;;;;;;6223632;22;20015;-85
2022/08/28 04:50:30;;;;;;;9.10;2.70;;;11.90;99.90;;;;;;6223893;22;20325;-85
2022/08/28 04:52:57;;;;;;;8.25;2.60;;;11.90;99.90;;;;;;6246957;22;20795;-85
2022/08/28 04:55:28;;;;;;;7.70;2.17;;;12.00;99.90;;;;;;6247703;22;20095;-85
2022/08/28 04:58:03;;;;;;;8.98;2.53;;;12.00;99.90;;;;;;6221829;22;20027;-85
2022/08/28 05:00:44;;;;;;;5.78;2.25;;;12.20;99.90;;;;;;6247208;22;20016;-82
2022/08/28 05:03:20;;;;;;;8.40;2.15;;;12.00;99.90;;;;;;6276164;22;20087;-85
2022/08/28 05:05:51;;;;;;;7.47;1.92;;;12.00;99.90;;;;;;6248243;22;20020;-86
2022/08/28 05:08:48;;;;;;;7.20;2.55;;;11.90;99.90;;;;;;6222442;22;20015;-84
2022/08/28 05:11:20;;;;;;;8.40;2.33;;;12.00;99.90;;;;;;6250873;22;20045;-87
2022/08/28 05:13:47;;;;;;;7.55;2.45;;;11.90;99.90;;;;;;6277317;22;20103;-88
2022/08/28 05:16:14;;;;;;;6.30;2.28;;;12.00;99.90;;;;;;6223835;22;20024;-87
2022/08/28 05:18:40;;;;;;;6.40;2.17;;;12.00;99.90;;;;;;6246325;22;20019;-89
2022/08/28 05:21:11;;;;;;;9.00;2.22;;;12.30;99.90;;;;;;6249236;22;20065;-90
2022/08/28 05:23:50;;;;;;;6.60;2.13;;;12.00;99.90;;;;;;6253077;22;20026;-95
2022/08/28 05:26:18;;;;;;;8.48;2.35;;;12.00;99.90;;;;;;6237376;22;20022;-94
2022/08/28 05:28:55;;;;;;;8.75;2.58;;;11.90;99.90;;;;;;6229160;22;20027;-94
2022/08/28 05:31:25;;;;;;;9.73;2.05;;;12.80;99.90;;;;;;6259857;22;20020;-92
2022/08/28 05:33:55;;;;;;;6.57;1.80;;;11.80;99.90;;;;;;6230254;22;20736;-85
2022/08/28 05:36:22;;;;;;;11.05;2.63;;;11.40;99.90;;;;;;6252531;22;20012;-83
2022/08/28 05:38:50;;;;;;;5.88;2.13;;;12.00;99.90;;;;;;6225288;22;20347;-84
2022/08/28 05:41:46;;;;;;;7.03;2.95;;;12.10;99.90;;;;;;6251294;22;20016;-85
2022/08/28 05:44:16;;;;;;;7.68;2.03;;;12.00;99.90;;;;;;6244972;22;20436;-85
2022/08/28 05:46:49;;;;;;;7.65;2.58;;;12.10;99.90;;;;;;6220002;22;20149;-85
2022/08/28 05:49:33;;;;;;;7.97;2.30;;;12.10;99.90;;;;;;6237512;22;20047;-85
2022/08/28 05:52:29;;;;;;;4.95;1.80;;;12.20;99.90;;;;;;6274314;22;20016;-85
2022/08/28 05:54:58;;;;;;;7.78;1.90;;;12.10;99.90;;;;;;6221615;22;20802;-85
2022/08/28 05:57:24;;;;;;;8.10;2.03;;;12.10;99.90;;;;;;6248505;22;20019;-86
2022/08/28 05:59:53;;;;;;;10.02;2.38;;;12.20;99.90;;;;;;6247659;22;20077;-87
2022/08/28 06:02:43;;;;;;;5.60;2.22;;;13.10;99.90;;;;;;6247865;22;20452;-87
2022/08/28 06:05:13;;;;;;;7.50;2.00;;;12.20;99.90;;;;;;6274342;22;20050;-86
2022/08/28 06:07:39;;;;;;;7.25;2.13;;;13.40;99.90;;;;;;6219845;22;20024;-86
2022/08/28 06:10:23;;;;;;;7.68;2.35;;;12.30;99.90;;;;;;6246630;22;20095;-86
2022/08/28 06:13:10;;;;;;;10.40;2.35;;;12.30;99.90;;;;;;6244009;22;20057;-86
2022/08/28 06:15:48;;;;;;;12.10;2.58;;;12.40;99.90;;;;;;6271806;22;20043;-86
2022/08/28 06:18:20;;;;;;;7.07;1.90;;;12.40;99.90;;;;;;6244465;22;20073;-86
2022/08/28 06:20:53;;;;;;;8.95;2.22;;;12.40;99.90;;;;;;6270263;22;20012;-86
2022/08/28 06:23:28;;;;;;;7.07;2.55;;;12.50;99.90;;;;;;6220642;22;20019;-86
2022/08/28 06:26:16;;;;;;;7.30;1.95;;;12.60;99.90;;;;;;6270209;22;20016;-86
2022/08/28 06:28:54;;;;;;;8.65;1.80;;;12.70;99.90;;;;;;6216758;22;20016;-87
2022/08/28 06:31:24;;;;;;;9.82;1.73;;;12.80;99.90;;;;;;6243461;22;20095;-87
2022/08/28 06:33:50;;;;;;;6.30;2.05;;;12.90;99.90;;;;;;6270574;22;20077;-88
2022/08/28 06:36:16;;;;;;;5.75;1.83;;;12.80;99.90;;;;;;6242765;22;20090;-87
2022/08/28 06:38:45;;;;;;;10.00;2.05;;;13.00;99.90;;;;;;6270374;22;20343;-87
2022/08/28 06:41:11;;;;;;;6.22;1.33;;;13.10;99.90;;;;;;6217622;22;20027;-86
2022/08/28 06:43:37;;;;;;;10.50;2.10;;;13.20;99.90;;;;;;6217642;22;20023;-87
2022/08/28 06:46:03;;;;;;;9.52;2.45;;;13.20;99.90;;;;;;6244160;22;20034;-86
2022/08/28 06:48:29;;;;;;;5.28;1.20;;;13.60;99.90;;;;;;6218496;22;20028;-86
2022/08/28 06:50:56;;;;;;;9.68;1.92;;;13.30;99.90;;;;;;6269846;22;20456;-86
2022/08/28 06:53:25;;;;;;;8.88;1.63;;;13.40;99.90;;;;;;6243872;22;20513;-88
2022/08/28 06:56:06;;;;;;;7.00;1.70;;;13.40;99.90;;;;;;6243050;22;20066;-86
2022/08/28 06:58:32;;;;;;;7.97;2.00;;;13.70;99.90;;;;;;6243515;22;20020;-86
2022/08/28 07:01:03;;;;;;;10.05;2.13;;;13.70;99.90;;;;;;6243801;22;20016;-86
2022/08/28 07:03:29;;;;;;;8.88;1.52;;;13.70;99.90;;;;;;6270556;22;20475;-88
2022/08/28 07:05:56;;;;;;;6.88;1.52;;;13.90;99.90;;;;;;6243590;22;20016;-89
2022/08/28 07:08:24;;;;;;;10.30;1.75;;;14.00;99.90;;;;;;6244032;22;20012;-88
2022/08/28 07:10:49;;;;;;;7.45;1.20;;;14.20;99.90;;;;;;6243134;22;20026;-89
2022/08/28 07:13:15;;;;;;;8.77;1.67;;;14.30;99.90;;;;;;6221204;23;20029;-89
2022/08/28 07:15:40;;;;;;;8.55;1.70;;;14.50;99.90;;;;;;6119540;23;20018;-89
2022/08/28 07:18:06;;;;;;;7.75;1.70;;;14.70;99.90;;;;;;6119403;23;20508;-89
2022/08/28 07:20:31;;;;;;;10.25;1.77;;;14.80;99.90;;;;;;6120485;23;20449;-89
2022/08/28 07:22:57;;;;;;;5.55;1.30;;;14.90;99.90;;;;;;6120466;23;20094;-89
2022/08/28 07:25:22;;;;;;;8.85;1.27;;;15.00;99.90;;;;;;6120189;23;20448;-89
2022/08/28 07:27:48;;;;;;;9.23;1.50;;;15.10;99.90;;;;;;6119509;23;20030;-89
2022/08/28 07:30:14;;;;;;;9.27;1.45;;;15.30;99.90;;;;;;6095592;23;20092;-89
2022/08/28 07:32:39;;;;;;;6.03;1.30;;;16.00;99.90;;;;;;6118856;23;20138;-90
2022/08/28 07:35:05;;;;;;;8.32;1.25;;;15.90;99.90;;;;;;6095508;23;20021;-89
2022/08/28 07:37:31;;;;;;;8.00;1.42;;;16.20;99.90;;;;;;6119800;23;20018;-89
2022/08/28 07:39:56;;;;;;;5.60;1.20;;;16.30;99.90;;;;;;6119166;23;20021;-88
2022/08/28 07:45:06;;;;;;;10.68;1.83;;;16.70;99.90;;;;;;6119075;23;20345;-89
2022/08/28 07:47:32;;;;;;;7.80;1.40;;;17.00;99.90;;;;;;6095242;23;20082;-88
2022/08/28 07:49:59;;;;;;;8.98;1.80;;;17.10;99.90;;;;;;6119287;23;20727;-89
2022/08/28 07:52:26;;;;;;;8.07;1.58;;;17.10;99.90;;;;;;6120193;23;20079;-91
2022/08/28 07:54:53;;;;;;;4.50;1.25;;;17.20;99.90;;;;;;6120996;23;20017;-92
2022/08/28 07:57:20;;;;;;;6.15;1.42;;;17.30;99.90;;;;;;6147638;23;20088;-92
2022/08/28 07:59:46;;;;;;;3.47;1.23;;;17.00;99.90;;;;;;6147252;23;20055;-93
2022/08/28 08:02:12;;;;;;;5.22;1.10;;;17.00;99.90;;;;;;6096177;23;20025;-89
2022/08/28 08:04:38;;;;;;;4.95;1.20;;;17.10;99.90;;;;;;6147137;22;20142;-90
2022/08/28 08:07:04;;;;;;;5.18;1.20;;;16.90;99.90;;;;;;6147356;23;20135;-89
2022/08/28 08:09:30;;;;;;;11.20;1.17;;;16.90;99.90;;;;;;6120268;23;20429;-89
2022/08/28 08:11:56;;;;;;;6.60;1.08;;;16.90;99.90;;;;;;6119308;23;20104;-90
2022/08/28 08:14:22;;;;;;;6.28;1.60;;;17.00;99.90;;;;;;6119664;23;20049;-88
2022/08/28 08:16:48;;;;;;;7.95;1.50;;;16.80;99.90;;;;;;6095554;23;20074;-91
2022/08/28 08:19:15;;;;;;;6.95;1.33;;;17.20;99.90;;;;;;6147078;23;20021;-90
2022/08/28 08:21:43;;;;;;;5.15;1.33;;;17.30;99.90;;;;;;6095626;23;20458;-87
2022/08/28 08:24:09;;;;;;;5.63;1.10;;;17.60;99.90;;;;;;6121900;23;20032;-93
2022/08/28 08:26:35;;;;;;;6.00;1.38;;;17.60;99.90;;;;;;6123169;23;20014;-93
2022/08/28 08:29:01;;;;;;;7.43;1.70;;;18.30;99.90;;;;;;6147635;22;20346;-90
2022/08/28 08:31:31;;;;;;;10.75;2.00;;;17.70;99.90;;;;;;6120196;23;20014;-89
2022/08/28 08:34:02;;;;;;;9.05;1.55;;;17.70;99.90;;;;;;6146219;23;20154;-89
2022/08/28 08:36:30;;;;;;;8.48;1.60;;;17.70;99.90;;;;;;6120382;23;20362;-89
2022/08/28 08:38:57;;;;;;;6.60;1.55;;;17.70;99.90;;;;;;6119917;23;20032;-89
2022/08/28 08:41:22;;;;;;;9.38;1.50;;;17.70;99.90;;;;;;6146001;23;20039;-89
2022/08/28 08:43:57;;;;;;;8.88;1.23;;;17.90;99.90;;;;;;6095578;23;20022;-89
2022/08/28 08:46:46;;;;;;;6.97;1.45;;;18.80;99.90;;;;;;6145581;23;20025;-92
2022/08/28 08:49:19;;;;;;;6.50;1.52;;;18.30;99.90;;;;;;6120166;23;20022;-95
2022/08/28 08:52:12;;;;;;;6.78;1.67;;;18.50;99.90;;;;;;6145644;23;20510;-92
2022/08/28 08:54:42;;;;;;;9.35;1.30;;;18.80;99.90;;;;;;6095939;23;20357;-92
2022/08/28 08:57:11;;;;;;;4.45;1.20;;;19.00;99.90;;;;;;6120159;23;20068;-91
2022/08/28 08:59:38;;;;;;;6.28;1.63;;;19.10;99.90;;;;;;6093824;23;20018;-90
2022/08/28 09:02:28;;;;;;;5.72;1.30;;;19.30;99.90;;;;;;6119600;23;20096;-90
2022/08/28 09:05:03;;;;;;;5.53;1.40;;;19.50;99.90;;;;;;6095333;23;20466;-92
2022/08/28 09:07:55;;;;;;;8.90;1.80;;;19.50;99.90;;;;;;6122843;23;20021;-94
2022/08/28 09:10:22;;;;;;;7.55;1.58;;;19.40;99.90;;;;;;6122676;23;20058;-94
2022/08/28 09:13:09;;;;;;;11.50;1.73;;;19.40;99.90;;;;;;6120757;23;20438;-88
2022/08/28 09:15:39;;;;;;;6.55;1.50;;;19.30;99.90;;;;;;6094703;23;20029;-89
2022/08/28 09:18:08;;;;;;;9.23;1.52;;;19.30;99.90;;;;;;6093698;23;20078;-89
2022/08/28 09:20:33;;;;;;;3.58;1.20;;;19.50;99.90;;;;;;6118418;23;20025;-89
2022/08/28 09:22:59;;;;;;;17.77;2.03;;;19.60;99.90;;;;;;6119529;23;20048;-86
2022/08/28 09:25:48;;;;;;;11.35;1.77;;;19.60;99.90;;;;;;6118493;23;20014;-86
2022/08/28 09:28:18;;;;;;;4.45;1.23;;;19.60;99.90;;;;;;6118506;23;20057;-87
2022/08/28 09:30:52;;;;;;;8.05;1.73;;;19.80;99.90;;;;;;6119275;23;20021;-88
2022/08/28 09:33:28;;;;;;;7.90;2.00;;;20.00;99.90;;;;;;6118738;23;20087;-87
2022/08/28 09:35:54;;;;;;;11.93;1.58;;;20.30;99.90;;;;;;6146221;23;20088;-88
2022/08/28 09:38:23;;;;;;;6.18;1.40;;;20.30;98.40;;;;;;6145589;22;20049;-87
2022/08/28 09:43:35;;;;;;;3.63;1.35;;;20.00;98.50;;;;;;6145276;23;20397;-88
2022/08/28 09:46:05;;;;;;;6.43;1.45;;;20.10;98.80;;;;;;6095893;23;20017;-88
2022/08/28 09:48:36;;;;;;;5.13;1.40;;;20.20;98.30;;;;;;6120017;23;20067;-88
2022/08/28 09:51:04;;;;;;;7.40;1.58;;;20.40;97.20;;;;;;6119867;23;20392;-88
2022/08/28 09:53:53;;;;;;;8.20;1.35;;;20.60;97.50;;;;;;6146442;23;20018;-87
2022/08/28 09:56:32;;;;;;;6.15;1.40;;;20.80;97.50;;;;;;6121498;23;20048;-94
2022/08/28 09:59:06;;;;;;;5.57;1.13;;;21.10;96.60;;;;;;6094477;23;20018;-87
2022/08/28 10:01:40;;;;;;;6.80;1.40;;;21.30;96.00;;;;;;6119908;23;20104;-87
2022/08/28 10:04:44;;;;;;;6.90;1.67;;;21.00;95.00;;;;;;6120819;23;20024;-88
2022/08/28 10:07:20;;;;;;;5.88;1.30;;;20.80;95.20;;;;;;6145334;23;20739;-87
2022/08/28 10:10:04;;;;;;;5.50;1.30;;;20.70;96.20;;;;;;6119591;23;20018;-88
2022/08/28 10:12:41;;;;;;;5.53;1.33;;;20.70;96.70;;;;;;6119783;23;20018;-87
2022/08/28 10:15:11;;;;;;;5.55;1.50;;;20.80;95.50;;;;;;6119663;23;20524;-88
2022/08/28 10:18:02;;;;;;;7.22;2.13;;;21.10;95.70;;;;;;6145354;23;20010;-88
2022/08/28 10:20:46;;;;;;;8.93;1.42;;;21.10;95.60;;;;;;6120276;23;20053;-88
2022/08/28 10:23:37;;;;;;;8.38;1.65;;;21.00;96.20;;;;;;6120029;23;20017;-87
2022/08/28 10:26:14;;;;;;;6.22;1.48;;;21.00;96.60;;;;;;6094901;23;20018;-89
2022/08/28 10:28:58;;;;;;;5.72;1.80;;;21.10;95.50;;;;;;6119324;23;20026;-87
2022/08/28 10:31:44;;;;;;;4.35;1.50;;;21.50;96.30;;;;;;6120174;23;20025;-86
2022/08/28 10:34:38;;;;;;;9.23;1.80;;;21.60;94.80;;;;;;6095624;23;20017;-87
2022/08/28 10:37:32;;;;;;;8.65;1.50;;;21.60;95.30;;;;;;6120319;23;20441;-88
2022/08/28 10:40:15;;;;;;;7.47;1.48;;;21.30;94.80;;;;;;6120755;23;20053;-87
2022/08/28 10:43:26;;;;;;;7.47;1.20;;;21.30;95.80;;;;;;6145046;23;20020;-87
2022/08/28 10:45:59;;;;;;;7.18;1.80;;;21.50;95.60;;;;;;6120511;23;20022;-88
2022/08/28 10:48:35;;;;;;;5.13;1.50;;;21.70;95.50;;;;;;6119951;23;20422;-87
2022/08/28 10:51:31;;;;;;;4.88;1.35;;;21.70;95.10;;;;;;6119736;23;20021;-88
2022/08/28 10:54:23;;;;;;;4.30;1.30;;;21.40;94.60;;;;;;6121919;23;20092;-89
2022/08/28 10:57:28;;;;;;;5.50;1.33;;;21.50;93.90;;;;;;6120058;23;20487;-88
2022/08/28 10:59:53;;;;;;;6.07;1.60;;;21.30;93.70;;;;;;6094895;23;20049;-90
2022/08/28 11:02:22;;;;;;;8.05;1.50;;;21.50;94.20;;;;;;6120763;23;20021;-88
2022/08/28 11:04:48;;;;;;;6.93;1.67;;;21.40;94.10;;;;;;6119379;23;20022;-89
2022/08/28 11:07:29;;;;;;;4.57;1.63;;;21.20;94.20;;;;;;6120309;23;20028;-88
2022/08/28 11:10:18;;;;;;;5.07;1.48;;;21.10;94.30;;;;;;6095923;23;20021;-88
2022/08/28 11:12:44;;;;;;;6.25;1.30;;;21.40;94.20;;;;;;6096160;23;20150;-88
2022/08/28 11:15:30;;;;;;;9.52;1.40;;;21.40;94.50;;;;;;6120429;23;20017;-89
2022/08/28 11:18:13;;;;;;;5.95;1.42;;;21.40;93.60;;;;;;6117092;23;20450;-88
2022/08/28 11:21:00;;;;;;;6.32;1.40;;;21.40;94.00;;;;;;6118705;23;20026;-88
2022/08/28 11:23:44;;;;;;;7.68;1.52;;;21.40;94.40;;;;;;6144422;23;20059;-88
2022/08/28 11:26:13;;;;;;;5.80;1.38;;;21.40;94.10;;;;;;6145549;23;20078;-88
2022/08/28 11:28:46;;;;;;;6.07;1.40;;;21.20;94.50;;;;;;6095615;23;20474;-88
2022/08/28 11:31:11;;;;;;;5.32;1.30;;;21.10;94.90;;;;;;6146812;23;20114;-88
2022/08/28 11:33:57;;;;;;;6.88;1.60;;;21.20;95.00;;;;;;6119955;23;20022;-88
2022/08/28 11:36:31;;;;;;;5.85;1.45;;;21.40;94.10;;;;;;6146736;23;20142;-88
2022/08/28 11:39:01;;;;;;;6.53;1.50;;;21.50;94.30;;;;;;6143785;23;20022;-88
2022/08/28 11:41:30;;;;;;;8.35;1.63;;;21.60;94.40;;;;;;6145736;23;20017;-88
2022/08/28 11:44:08;;;;;;;7.45;1.63;;;21.90;94.30;;;;;;6119346;23;20465;-88
2022/08/28 11:46:37;;;;;;;8.98;1.40;;;22.20;93.80;;;;;;6093383;23;20018;-88
2022/08/28 11:49:25;;;;;;;6.15;1.63;;;22.50;93.60;;;;;;6119473;23;20022;-88
2022/08/28 11:52:01;;;;;;;6.20;1.50;;;22.60;93.60;;;;;;6145514;23;20093;-88
2022/08/28 11:54:43;;;;;;;4.78;1.33;;;22.60;93.40;;;;;;6094423;23;20190;-88
2022/08/28 11:57:34;;;;;;;5.22;1.70;;;22.60;92.80;;;;;;6095050;23;20246;-88
2022/08/28 12:00:31;;;;;;;6.85;1.40;;;22.60;92.10;;;;;;6118062;23;20075;-88
2022/08/28 12:03:05;;;;;;;6.90;1.60;;;22.40;91.90;;;;;;6145275;23;20503;-88
2022/08/28 12:05:31;;;;;;;8.50;1.20;;;22.40;92.10;;;;;;6094361;23;20018;-88
2022/08/28 12:08:02;;;;;;;4.30;1.45;;;22.50;91.60;;;;;;6116505;23;20358;-86
2022/08/28 12:10:29;;;;;;;6.80;1.85;;;22.60;91.10;;;;;;6118669;23;20024;-86
2022/08/28 12:12:56;;;;;;;4.60;1.30;;;22.80;91.50;;;;;;6150089;22;20021;-88
2022/08/28 12:15:28;;;;;;;7.85;1.90;;;22.90;91.70;;;;;;6242852;22;20099;-88
2022/08/28 12:18:13;;;;;;;5.13;1.50;;;22.80;91.00;;;;;;6241947;22;20058;-87
2022/08/28 12:21:01;;;;;;;5.55;1.42;;;22.70;91.60;;;;;;6243531;22;20085;-88
2022/08/28 12:23:39;;;;;;;8.30;1.50;;;22.70;91.70;;;;;;6242935;22;20012;-89
2022/08/28 12:26:14;;;;;;;8.27;1.60;;;22.70;90.40;;;;;;6218631;22;20015;-88
2022/08/28 12:28:49;;;;;;;7.82;1.42;;;22.60;91.00;;;;;;6269386;22;20020;-88
2022/08/28 12:32:10;;;;;;;5.25;1.25;;;22.70;91.50;;;;;;6217571;22;20016;-89
2022/08/28 12:34:40;;;;;;;5.50;1.50;;;22.70;90.90;;;;;;6241962;22;20023;-88
2022/08/28 12:37:22;;;;;;;4.78;1.30;;;22.60;91.50;;;;;;6242026;22;20065;-89
2022/08/28 12:39:49;;;;;;;6.95;1.23;;;22.30;91.50;;;;;;6271397;22;20065;-88
2022/08/28 12:42:21;;;;;;;6.32;1.40;;;22.20;91.70;;;;;;6244910;22;20008;-89
2022/08/28 12:44:47;;;;;;;7.22;1.85;;;22.20;91.60;;;;;;6244390;22;20676;-88
2022/08/28 12:47:16;;;;;;;7.57;1.50;;;22.10;92.00;;;;;;6240262;22;20054;-89
2022/08/28 12:49:42;;;;;;;6.75;1.40;;;21.90;91.90;;;;;;6271543;22;20070;-90
2022/08/28 12:52:20;;;;;;;6.20;1.55;;;21.80;92.10;;;;;;6243876;22;20016;-89
2022/08/28 12:54:48;;;;;;;9.10;1.38;;;22.00;91.80;;;;;;6219130;22;20023;-90
2022/08/28 12:57:16;;;;;;;9.10;1.58;;;22.10;91.80;;;;;;6243929;22;20027;-88
2022/08/28 12:59:45;;;;;;;5.40;1.30;;;22.20;92.40;;;;;;6244140;22;20015;-89
2022/08/28 13:02:32;;;;;;;5.65;1.38;;;22.40;92.00;;;;;;6218483;22;20335;-89
2022/08/28 13:05:10;;;;;;;4.70;1.30;;;22.60;92.40;;;;;;6244726;22;20015;-89
2022/08/28 13:07:46;;;;;;;7.97;1.30;;;22.60;91.60;;;;;;6268991;22;20046;-89
2022/08/28 13:10:28;;;;;;;7.15;1.27;;;22.50;91.30;;;;;;6241295;22;20008;-89
2022/08/28 13:13:43;;;;;;;10.25;1.30;;;22.40;91.70;;;;;;6239758;22;20019;-89
2022/08/28 13:16:33;;;;;;;4.35;1.00;;;22.30;91.90;;;;;;6094113;23;20026;-90
2022/08/28 13:19:05;;;;;;;6.15;0.98;;;22.20;92.00;;;;;;6120160;23;20083;-87
2022/08/28 13:21:57;;;;;;;9.80;1.60;;;22.10;92.20;;;;;;6145793;23;20097;-88
2022/08/28 13:24:27;;;;;;;4.53;1.10;;;22.10;93.00;;;;;;6146771;23;20397;-88
2022/08/28 13:27:02;;;;;;;4.82;1.20;;;22.20;93.30;;;;;;6146418;23;20097;-88
2022/08/28 13:29:28;;;;;;;5.70;0.98;;;22.30;93.40;;;;;;6120728;23;20018;-88